sensor_id;sensor_type;location;lat;lon;timestamp;pressure;altitude;pressure_sealevel;temperature;humidity
7376;BME280;3728;42.266;24.944;2023-07-30T00:01:20;99227.34;;;23.99;53.36
7376;BME280;3728;42.266;24.944;2023-07-30T00:03:47;99224.25;;;24.04;52.57
7376;BME280;3728;42.266;24.944;2023-07-30T00:06:15;99224.41;;;23.86;53.62
7376;BME280;3728;42.266;24.944;2023-07-30T00:08:42;99222.13;;;23.85;53.42
7376;BME280;3728;42.266;24.944;2023-07-30T00:11:10;99223.88;;;23.57;54.05
7376;BME280;3728;42.266;24.944;2023-07-30T00:13:37;99222.41;;;23.49;53.95
7376;BME280;3728;42.266;24.944;2023-07-30T00:16:05;99230.13;;;23.30;54.85
7376;BME280;3728;42.266;24.944;2023-07-30T00:18:32;99224.41;;;23.31;55.32
7376;BME280;3728;42.266;24.944;2023-07-30T00:21:00;99221.28;;;23.47;55.38
7376;BME280;3728;42.266;24.944;2023-07-30T00:23:27;99224.03;;;23.36;55.80
7376;BME280;3728;42.266;24.944;2023-07-30T00:25:55;99220.19;;;23.37;56.44
7376;BME280;3728;42.266;24.944;2023-07-30T00:28:23;99215.66;;;23.24;57.16
7376;BME280;3728;42.266;24.944;2023-07-30T00:30:50;99225.25;;;23.14;58.31
7376;BME280;3728;42.266;24.944;2023-07-30T00:33:18;99223.97;;;23.43;58.24
7376;BME280;3728;42.266;24.944;2023-07-30T00:35:45;99235.09;;;23.38;58.19
7376;BME280;3728;42.266;24.944;2023-07-30T00:38:13;99237.78;;;23.31;58.26
7376;BME280;3728;42.266;24.944;2023-07-30T00:40:42;99234.41;;;23.17;59.86
7376;BME280;3728;42.266;24.944;2023-07-30T00:43:10;99228.75;;;23.07;59.45
7376;BME280;3728;42.266;24.944;2023-07-30T00:45:40;99232.16;;;23.15;59.31
7376;BME280;3728;42.266;24.944;2023-07-30T00:48:10;99226.38;;;23.20;58.49
7376;BME280;3728;42.266;24.944;2023-07-30T00:50:38;99232.91;;;23.08;59.28
7376;BME280;3728;42.266;24.944;2023-07-30T00:53:08;99242.81;;;23.19;58.77
7376;BME280;3728;42.266;24.944;2023-07-30T00:55:38;99239.41;;;23.11;59.25
7376;BME280;3728;42.266;24.944;2023-07-30T00:58:05;99236.75;;;23.04;59.71
7376;BME280;3728;42.266;24.944;2023-07-30T01:00:33;99239.13;;;22.91;59.68
7376;BME280;3728;42.266;24.944;2023-07-30T01:03:01;99239.56;;;22.76;60.22
7376;BME280;3728;42.266;24.944;2023-07-30T01:05:29;99239.59;;;22.65;61.29
7376;BME280;3728;42.266;24.944;2023-07-30T01:07:58;99238.88;;;22.43;63.85
7376;BME280;3728;42.266;24.944;2023-07-30T01:10:25;99246.50;;;22.41;65.23
7376;BME280;3728;42.266;24.944;2023-07-30T01:12:53;99245.75;;;22.27;65.96
7376;BME280;3728;42.266;24.944;2023-07-30T01:15:21;99234.34;;;22.16;66.58
7376;BME280;3728;42.266;24.944;2023-07-30T01:17:49;99235.09;;;22.16;67.14
7376;BME280;3728;42.266;24.944;2023-07-30T01:20:16;99244.63;;;22.17;66.69
7376;BME280;3728;42.266;24.944;2023-07-30T01:22:44;99243.50;;;22.25;65.49
7376;BME280;3728;42.266;24.944;2023-07-30T01:25:11;99238.53;;;22.20;66.30
7376;BME280;3728;42.266;24.944;2023-07-30T01:27:44;99237.38;;;22.14;66.92
7376;BME280;3728;42.266;24.944;2023-07-30T01:30:18;99237.03;;;22.02;68.08
7376;BME280;3728;42.266;24.944;2023-07-30T01:32:50;99237.41;;;21.93;68.38
7376;BME280;3728;42.266;24.944;2023-07-30T01:35:21;99233.22;;;21.96;68.28
7376;BME280;3728;42.266;24.944;2023-07-30T01:37:53;99228.66;;;21.96;68.49
7376;BME280;3728;42.266;24.944;2023-07-30T01:40:21;99226.00;;;22.00;68.59
7376;BME280;3728;42.266;24.944;2023-07-30T01:42:49;99232.84;;;22.04;68.50
7376;BME280;3728;42.266;24.944;2023-07-30T01:45:17;99234.38;;;21.98;68.94
7376;BME280;3728;42.266;24.944;2023-07-30T01:47:46;99243.50;;;21.94;68.79
7376;BME280;3728;42.266;24.944;2023-07-30T01:50:13;99241.59;;;21.87;68.86
7376;BME280;3728;42.266;24.944;2023-07-30T01:52:41;99250.00;;;22.00;69.32
7376;BME280;3728;42.266;24.944;2023-07-30T01:55:09;99251.09;;;22.23;68.05
7376;BME280;3728;42.266;24.944;2023-07-30T01:57:36;99253.38;;;21.79;69.47
7376;BME280;3728;42.266;24.944;2023-07-30T02:00:04;99253.75;;;21.60;70.51
7376;BME280;3728;42.266;24.944;2023-07-30T02:02:32;99252.59;;;21.54;70.86
7376;BME280;3728;42.266;24.944;2023-07-30T02:05:02;99260.22;;;21.52;70.75
7376;BME280;3728;42.266;24.944;2023-07-30T02:07:30;99264.38;;;21.46;70.20
7376;BME280;3728;42.266;24.944;2023-07-30T02:09:58;99248.31;;;21.10;70.49
7376;BME280;3728;42.266;24.944;2023-07-30T02:12:25;99247.94;;;21.16;70.28
7376;BME280;3728;42.266;24.944;2023-07-30T02:14:56;99247.19;;;21.19;69.85
7376;BME280;3728;42.266;24.944;2023-07-30T02:17:23;99246.41;;;21.11;70.39
7376;BME280;3728;42.266;24.944;2023-07-30T02:19:51;99250.66;;;21.26;70.74
7376;BME280;3728;42.266;24.944;2023-07-30T02:22:18;99254.06;;;21.27;70.31
7376;BME280;3728;42.266;24.944;2023-07-30T02:24:46;99264.31;;;21.25;70.35
7376;BME280;3728;42.266;24.944;2023-07-30T02:27:13;99257.41;;;21.06;70.82
7376;BME280;3728;42.266;24.944;2023-07-30T02:29:41;99258.56;;;21.08;71.01
7376;BME280;3728;42.266;24.944;2023-07-30T02:32:09;99268.50;;;21.22;70.86
7376;BME280;3728;42.266;24.944;2023-07-30T02:34:36;99254.06;;;21.30;70.22
7376;BME280;3728;42.266;24.944;2023-07-30T02:37:04;99262.47;;;21.36;69.58
7376;BME280;3728;42.266;24.944;2023-07-30T02:39:32;99261.69;;;21.28;70.16
7376;BME280;3728;42.266;24.944;2023-07-30T02:41:59;99263.19;;;21.29;70.08
7376;BME280;3728;42.266;24.944;2023-07-30T02:44:27;99264.38;;;21.35;69.84
7376;BME280;3728;42.266;24.944;2023-07-30T02:46:55;99268.53;;;21.26;70.01
7376;BME280;3728;42.266;24.944;2023-07-30T02:49:22;99270.81;;;21.24;70.26
7376;BME280;3728;42.266;24.944;2023-07-30T02:51:50;99274.59;;;21.19;70.50
7376;BME280;3728;42.266;24.944;2023-07-30T02:54:17;99272.28;;;21.18;70.02
7376;BME280;3728;42.266;24.944;2023-07-30T02:56:47;99274.22;;;21.17;70.01
7376;BME280;3728;42.266;24.944;2023-07-30T02:59:15;99285.34;;;21.47;69.13
7376;BME280;3728;42.266;24.944;2023-07-30T03:01:42;99289.78;;;21.11;69.46
7376;BME280;3728;42.266;24.944;2023-07-30T03:04:11;99282.16;;;21.06;70.12
7376;BME280;3728;42.266;24.944;2023-07-30T03:06:38;99277.75;;;21.63;68.94
7376;BME280;3728;42.266;24.944;2023-07-30T03:09:06;99288.00;;;21.51;68.85
7376;BME280;3728;42.266;24.944;2023-07-30T03:11:34;99291.31;;;21.13;70.54
7376;BME280;3728;42.266;24.944;2023-07-30T03:14:02;99294.00;;;21.23;70.21
7376;BME280;3728;42.266;24.944;2023-07-30T03:16:29;99293.59;;;21.14;71.12
7376;BME280;3728;42.266;24.944;2023-07-30T03:18:57;99292.38;;;20.97;71.56
7376;BME280;3728;42.266;24.944;2023-07-30T03:21:24;99298.34;;;20.77;72.23
7376;BME280;3728;42.266;24.944;2023-07-30T03:23:52;99302.47;;;20.71;72.15
7376;BME280;3728;42.266;24.944;2023-07-30T03:26:19;99297.94;;;20.71;72.16
7376;BME280;3728;42.266;24.944;2023-07-30T03:28:48;99298.00;;;20.85;71.47
7376;BME280;3728;42.266;24.944;2023-07-30T03:31:15;99298.78;;;20.89;70.72
7376;BME280;3728;42.266;24.944;2023-07-30T03:33:43;99300.31;;;20.94;70.96
7376;BME280;3728;42.266;24.944;2023-07-30T03:36:13;99304.59;;;21.09;70.94
7376;BME280;3728;42.266;24.944;2023-07-30T03:38:42;99305.00;;;21.07;71.48
7376;BME280;3728;42.266;24.944;2023-07-30T03:41:10;99305.00;;;21.07;71.95
7376;BME280;3728;42.266;24.944;2023-07-30T03:43:37;99311.09;;;21.11;71.01
7376;BME280;3728;42.266;24.944;2023-07-30T03:46:05;99313.41;;;21.27;70.78
7376;BME280;3728;42.266;24.944;2023-07-30T03:48:33;99308.88;;;21.28;70.50
7376;BME280;3728;42.266;24.944;2023-07-30T03:51:02;99309.66;;;21.35;69.53
7376;BME280;3728;42.266;24.944;2023-07-30T03:53:29;99308.16;;;21.38;69.08
7376;BME280;3728;42.266;24.944;2023-07-30T03:55:57;99313.91;;;21.54;68.32
7376;BME280;3728;42.266;24.944;2023-07-30T03:58:25;99315.78;;;21.53;68.94
7376;BME280;3728;42.266;24.944;2023-07-30T04:00:53;99317.69;;;21.60;68.43
7376;BME280;3728;42.266;24.944;2023-07-30T04:03:20;99322.66;;;21.58;68.98
7376;BME280;3728;42.266;24.944;2023-07-30T04:05:48;99318.84;;;21.62;68.63
7376;BME280;3728;42.266;24.944;2023-07-30T04:08:16;99324.97;;;21.73;68.52
7376;BME280;3728;42.266;24.944;2023-07-30T04:10:44;99321.94;;;21.78;68.13
7376;BME280;3728;42.266;24.944;2023-07-30T04:13:11;99325.78;;;21.88;65.17
7376;BME280;3728;42.266;24.944;2023-07-30T04:15:40;99329.97;;;21.89;66.44
7376;BME280;3728;42.266;24.944;2023-07-30T04:18:08;99326.56;;;21.92;65.81
7376;BME280;3728;42.266;24.944;2023-07-30T04:20:35;99326.94;;;22.05;65.25
7376;BME280;3728;42.266;24.944;2023-07-30T04:23:03;99328.47;;;22.06;64.95
7376;BME280;3728;42.266;24.944;2023-07-30T04:25:31;99327.72;;;22.16;64.68
7376;BME280;3728;42.266;24.944;2023-07-30T04:27:58;99332.69;;;22.28;63.48
7376;BME280;3728;42.266;24.944;2023-07-30T04:30:26;99330.75;;;22.25;64.12
7376;BME280;3728;42.266;24.944;2023-07-30T04:32:53;99335.72;;;22.33;64.02
7376;BME280;3728;42.266;24.944;2023-07-30T04:35:21;99335.31;;;22.45;63.48
7376;BME280;3728;42.266;24.944;2023-07-30T04:37:48;99332.28;;;22.51;62.62
7376;BME280;3728;42.266;24.944;2023-07-30T04:40:17;99337.59;;;22.58;62.85
7376;BME280;3728;42.266;24.944;2023-07-30T04:42:45;99342.19;;;22.68;61.56
7376;BME280;3728;42.266;24.944;2023-07-30T04:45:12;99344.84;;;22.78;62.01
7376;BME280;3728;42.266;24.944;2023-07-30T04:47:43;99356.63;;;22.88;61.35
7376;BME280;3728;42.266;24.944;2023-07-30T04:50:11;99351.25;;;23.02;60.30
7376;BME280;3728;42.266;24.944;2023-07-30T04:52:38;99358.47;;;23.12;58.57
7376;BME280;3728;42.266;24.944;2023-07-30T04:55:06;99358.84;;;23.14;58.42
7376;BME280;3728;42.266;24.944;2023-07-30T04:57:34;99351.56;;;23.25;58.61
7376;BME280;3728;42.266;24.944;2023-07-30T05:00:02;99357.25;;;23.27;57.10
7376;BME280;3728;42.266;24.944;2023-07-30T05:02:30;99353.81;;;23.30;56.70
7376;BME280;3728;42.266;24.944;2023-07-30T05:04:58;99354.56;;;23.45;56.53
7376;BME280;3728;42.266;24.944;2023-07-30T05:07:26;99356.06;;;23.53;56.91
7376;BME280;3728;42.266;24.944;2023-07-30T05:09:53;99349.50;;;23.64;56.82
7376;BME280;3728;42.266;24.944;2023-07-30T05:12:21;99355.88;;;23.85;54.54
7376;BME280;3728;42.266;24.944;2023-07-30T05:14:48;99355.00;;;23.98;54.60
7376;BME280;3728;42.266;24.944;2023-07-30T05:17:16;99353.38;;;24.15;54.80
7376;BME280;3728;42.266;24.944;2023-07-30T05:19:43;99348.69;;;24.29;54.02
7376;BME280;3728;42.266;24.944;2023-07-30T05:22:11;99345.16;;;24.39;52.97
7376;BME280;3728;42.266;24.944;2023-07-30T05:24:38;99342.44;;;24.46;53.45
7376;BME280;3728;42.266;24.944;2023-07-30T05:27:06;99353.03;;;24.57;52.36
7376;BME280;3728;42.266;24.944;2023-07-30T05:29:34;99355.63;;;24.68;52.30
7376;BME280;3728;42.266;24.944;2023-07-30T05:32:01;99350.19;;;25.12;50.00
7376;BME280;3728;42.266;24.944;2023-07-30T05:34:29;99360.94;;;25.08;50.29
7376;BME280;3728;42.266;24.944;2023-07-30T05:36:56;99349.78;;;25.13;50.31
7376;BME280;3728;42.266;24.944;2023-07-30T05:39:24;99359.94;;;25.29;49.63
7376;BME280;3728;42.266;24.944;2023-07-30T05:41:52;99353.81;;;25.29;49.15
7376;BME280;3728;42.266;24.944;2023-07-30T05:44:20;99349.13;;;25.36;49.91
7376;BME280;3728;42.266;24.944;2023-07-30T05:46:47;99344.97;;;25.62;48.53
7376;BME280;3728;42.266;24.944;2023-07-30T05:49:15;99353.78;;;25.62;48.77
7376;BME280;3728;42.266;24.944;2023-07-30T05:51:42;99356.53;;;25.86;48.28
7376;BME280;3728;42.266;24.944;2023-07-30T05:54:10;99359.03;;;26.23;46.67
7376;BME280;3728;42.266;24.944;2023-07-30T05:56:38;99358.16;;;26.03;47.17
7376;BME280;3728;42.266;24.944;2023-07-30T05:59:06;99357.28;;;26.13;48.03
7376;BME280;3728;42.266;24.944;2023-07-30T06:01:33;99359.56;;;26.14;47.43
7376;BME280;3728;42.266;24.944;2023-07-30T06:04:02;99354.66;;;26.32;47.02
7376;BME280;3728;42.266;24.944;2023-07-30T06:06:30;99361.59;;;26.53;46.73
7376;BME280;3728;42.266;24.944;2023-07-30T06:08:57;99353.72;;;26.66;46.47
7376;BME280;3728;42.266;24.944;2023-07-30T06:11:25;99352.53;;;26.67;46.42
7376;BME280;3728;42.266;24.944;2023-07-30T06:13:53;99356.56;;;26.78;46.92
7376;BME280;3728;42.266;24.944;2023-07-30T06:16:21;99349.56;;;27.24;45.04
7376;BME280;3728;42.266;24.944;2023-07-30T06:18:49;99351.19;;;27.57;44.38
7376;BME280;3728;42.266;24.944;2023-07-30T06:21:17;99348.31;;;27.28;45.39
7376;BME280;3728;42.266;24.944;2023-07-30T06:23:44;99345.88;;;27.34;45.35
7376;BME280;3728;42.266;24.944;2023-07-30T06:26:12;99353.38;;;28.14;43.47
7376;BME280;3728;42.266;24.944;2023-07-30T06:28:39;99355.00;;;27.75;43.87
7376;BME280;3728;42.266;24.944;2023-07-30T06:31:07;99349.41;;;27.50;43.90
7376;BME280;3728;42.266;24.944;2023-07-30T06:33:35;99346.00;;;27.46;44.73
7376;BME280;3728;42.266;24.944;2023-07-30T06:36:04;99355.75;;;27.60;44.79
7376;BME280;3728;42.266;24.944;2023-07-30T06:38:31;99344.91;;;27.79;43.16
7376;BME280;3728;42.266;24.944;2023-07-30T06:41:02;99353.97;;;28.21;42.73
7376;BME280;3728;42.266;24.944;2023-07-30T06:43:29;99344.31;;;28.36;42.78
7376;BME280;3728;42.266;24.944;2023-07-30T06:45:57;99353.25;;;28.17;43.09
7376;BME280;3728;42.266;24.944;2023-07-30T06:48:24;99344.44;;;28.01;43.80
7376;BME280;3728;42.266;24.944;2023-07-30T06:50:54;99341.88;;;28.42;42.92
7376;BME280;3728;42.266;24.944;2023-07-30T06:53:22;99336.69;;;28.80;42.07
7376;BME280;3728;42.266;24.944;2023-07-30T06:55:49;99339.09;;;29.32;40.68
7376;BME280;3728;42.266;24.944;2023-07-30T06:58:17;99339.84;;;28.91;41.42
7376;BME280;3728;42.266;24.944;2023-07-30T07:00:44;99333.28;;;29.04;41.30
7376;BME280;3728;42.266;24.944;2023-07-30T07:03:12;99334.19;;;29.14;41.03
7376;BME280;3728;42.266;24.944;2023-07-30T07:05:41;99327.75;;;29.24;41.63
7376;BME280;3728;42.266;24.944;2023-07-30T07:08:10;99326.78;;;29.18;41.84
7376;BME280;3728;42.266;24.944;2023-07-30T07:10:38;99326.78;;;29.31;42.26
7376;BME280;3728;42.266;24.944;2023-07-30T07:13:05;99308.16;;;29.49;41.70
7376;BME280;3728;42.266;24.944;2023-07-30T07:15:33;99308.16;;;29.49;40.78
7376;BME280;3728;42.266;24.944;2023-07-30T07:18:01;99313.63;;;29.70;40.28
7376;BME280;3728;42.266;24.944;2023-07-30T07:20:28;99311.25;;;29.85;41.10
7376;BME280;3728;42.266;24.944;2023-07-30T07:22:58;99306.41;;;30.27;39.86
7376;BME280;3728;42.266;24.944;2023-07-30T07:25:28;99304.72;;;30.08;39.89
7376;BME280;3728;42.266;24.944;2023-07-30T07:27:56;99306.41;;;29.80;39.98
7376;BME280;3728;42.266;24.944;2023-07-30T07:30:23;99302.72;;;29.87;40.47
7376;BME280;3728;42.266;24.944;2023-07-30T07:33:12;99297.81;;;30.19;38.95
7376;BME280;3728;42.266;24.944;2023-07-30T07:35:40;99306.59;;;29.73;40.61
7376;BME280;3728;42.266;24.944;2023-07-30T07:38:08;99303.38;;;29.78;39.83
7376;BME280;3728;42.266;24.944;2023-07-30T07:40:37;99312.53;;;29.68;40.54
7376;BME280;3728;42.266;24.944;2023-07-30T07:43:08;99297.81;;;30.07;39.50
7376;BME280;3728;42.266;24.944;2023-07-30T07:45:36;99304.63;;;30.45;40.24
7376;BME280;3728;42.266;24.944;2023-07-30T07:48:05;99304.84;;;30.73;38.65
7376;BME280;3728;42.266;24.944;2023-07-30T07:50:32;99300.13;;;30.86;38.20
7376;BME280;3728;42.266;24.944;2023-07-30T07:53:00;99304.84;;;30.73;37.64
7376;BME280;3728;42.266;24.944;2023-07-30T07:55:30;99307.00;;;30.99;38.15
7376;BME280;3728;42.266;24.944;2023-07-30T07:57:59;99295.63;;;30.83;37.85
7376;BME280;3728;42.266;24.944;2023-07-30T08:00:27;99288.06;;;30.99;37.66
7376;BME280;3728;42.266;24.944;2023-07-30T08:02:54;99280.13;;;31.05;37.70
7376;BME280;3728;42.266;24.944;2023-07-30T08:05:22;99283.09;;;30.98;38.07
7376;BME280;3728;42.266;24.944;2023-07-30T08:07:51;99280.03;;;31.18;37.98
7376;BME280;3728;42.266;24.944;2023-07-30T08:10:19;99278.72;;;31.31;37.86
7376;BME280;3728;42.266;24.944;2023-07-30T08:12:48;99277.09;;;31.03;38.30
7376;BME280;3728;42.266;24.944;2023-07-30T08:15:15;99271.56;;;31.37;36.17
7376;BME280;3728;42.266;24.944;2023-07-30T08:17:43;99273.81;;;31.08;37.40
7376;BME280;3728;42.266;24.944;2023-07-30T08:20:11;99267.84;;;31.13;37.09
7376;BME280;3728;42.266;24.944;2023-07-30T08:22:39;99268.00;;;31.49;37.46
7376;BME280;3728;42.266;24.944;2023-07-30T08:25:07;99269.53;;;31.59;36.82
7376;BME280;3728;42.266;24.944;2023-07-30T08:27:35;99272.19;;;31.99;35.87
7376;BME280;3728;42.266;24.944;2023-07-30T08:30:03;99270.03;;;31.85;35.90
7376;BME280;3728;42.266;24.944;2023-07-30T08:32:32;99262.50;;;31.80;36.04
7376;BME280;3728;42.266;24.944;2023-07-30T08:35:06;99264.63;;;31.94;36.16
7376;BME280;3728;42.266;24.944;2023-07-30T08:37:34;99260.31;;;32.24;36.02
7376;BME280;3728;42.266;24.944;2023-07-30T08:40:02;99253.25;;;32.26;35.30
7376;BME280;3728;42.266;24.944;2023-07-30T08:42:30;99255.03;;;32.20;35.79
7376;BME280;3728;42.266;24.944;2023-07-30T08:44:59;99252.88;;;32.79;34.09
7376;BME280;3728;42.266;24.944;2023-07-30T08:47:28;99249.00;;;32.43;35.08
7376;BME280;3728;42.266;24.944;2023-07-30T08:49:57;99245.69;;;32.58;34.24
7376;BME280;3728;42.266;24.944;2023-07-30T08:52:26;99241.94;;;32.37;34.92
7376;BME280;3728;42.266;24.944;2023-07-30T08:54:58;99232.66;;;32.89;32.82
7376;BME280;3728;42.266;24.944;2023-07-30T08:57:29;99225.81;;;32.52;34.98
7376;BME280;3728;42.266;24.944;2023-07-30T09:00:06;99231.94;;;33.21;32.50
7376;BME280;3728;42.266;24.944;2023-07-30T09:02:39;99215.50;;;32.83;33.53
7376;BME280;3728;42.266;24.944;2023-07-30T09:05:15;99218.59;;;33.08;34.29
7376;BME280;3728;42.266;24.944;2023-07-30T09:07:42;99220.59;;;33.32;33.61
7376;BME280;3728;42.266;24.944;2023-07-30T09:10:14;99217.63;;;33.21;33.75
7376;BME280;3728;42.266;24.944;2023-07-30T09:12:42;99213.09;;;33.50;32.57
7376;BME280;3728;42.266;24.944;2023-07-30T09:15:14;99211.44;;;33.77;32.17
7376;BME280;3728;42.266;24.944;2023-07-30T09:17:43;99206.84;;;34.06;30.67
7376;BME280;3728;42.266;24.944;2023-07-30T09:20:11;99201.09;;;33.66;32.54
7376;BME280;3728;42.266;24.944;2023-07-30T09:22:39;99191.06;;;33.96;31.40
7376;BME280;3728;42.266;24.944;2023-07-30T09:25:18;99195.03;;;34.09;30.93
7376;BME280;3728;42.266;24.944;2023-07-30T09:27:50;99188.69;;;34.12;30.70
7376;BME280;3728;42.266;24.944;2023-07-30T09:30:23;99186.53;;;34.31;31.45
7376;BME280;3728;42.266;24.944;2023-07-30T09:32:54;99186.25;;;34.29;30.77
7376;BME280;3728;42.266;24.944;2023-07-30T09:35:24;99181.66;;;34.50;31.52
7376;BME280;3728;42.266;24.944;2023-07-30T09:38:00;99174.19;;;34.59;30.38
7376;BME280;3728;42.266;24.944;2023-07-30T09:40:36;99177.50;;;34.25;31.59
7376;BME280;3728;42.266;24.944;2023-07-30T09:43:05;99176.56;;;34.13;30.93
7376;BME280;3728;42.266;24.944;2023-07-30T09:45:35;99176.19;;;34.20;31.24
7376;BME280;3728;42.266;24.944;2023-07-30T09:48:05;99165.91;;;34.54;31.36
7376;BME280;3728;42.266;24.944;2023-07-30T09:50:37;99167.22;;;34.73;29.93
7376;BME280;3728;42.266;24.944;2023-07-30T09:53:05;99161.25;;;34.89;29.86
7376;BME280;3728;42.266;24.944;2023-07-30T09:55:32;99157.72;;;34.83;29.63
7376;BME280;3728;42.266;24.944;2023-07-30T09:58:00;99155.06;;;34.88;29.13
7376;BME280;3728;42.266;24.944;2023-07-30T10:00:29;99150.44;;;34.60;29.50
7376;BME280;3728;42.266;24.944;2023-07-30T10:02:58;99140.72;;;35.23;28.87
7376;BME280;3728;42.266;24.944;2023-07-30T10:05:32;99143.31;;;35.32;28.53
7376;BME280;3728;42.266;24.944;2023-07-30T10:08:07;99144.25;;;35.69;27.82
7376;BME280;3728;42.266;24.944;2023-07-30T10:10:37;99139.72;;;35.60;26.56
7376;BME280;3728;42.266;24.944;2023-07-30T10:13:08;99134.03;;;35.44;28.35
7376;BME280;3728;42.266;24.944;2023-07-30T10:15:38;99131.50;;;36.01;28.07
7376;BME280;3728;42.266;24.944;2023-07-30T10:18:09;99127.72;;;35.52;27.42
7376;BME280;3728;42.266;24.944;2023-07-30T10:20:38;99123.78;;;35.53;28.34
7376;BME280;3728;42.266;24.944;2023-07-30T10:23:06;99120.72;;;35.92;27.53
7376;BME280;3728;42.266;24.944;2023-07-30T10:25:46;99116.47;;;35.91;28.95
7376;BME280;3728;42.266;24.944;2023-07-30T10:31:08;99105.84;;;35.93;28.61
7376;BME280;3728;42.266;24.944;2023-07-30T10:33:53;99106.06;;;35.89;29.00
7376;BME280;3728;42.266;24.944;2023-07-30T10:36:32;99106.91;;;36.26;25.82
7376;BME280;3728;42.266;24.944;2023-07-30T10:39:26;99104.00;;;36.04;27.36
7376;BME280;3728;42.266;24.944;2023-07-30T10:41:57;99104.38;;;36.17;26.42
7376;BME280;3728;42.266;24.944;2023-07-30T10:44:33;99095.03;;;35.98;26.28
7376;BME280;3728;42.266;24.944;2023-07-30T10:47:03;99094.34;;;36.71;26.79
7376;BME280;3728;42.266;24.944;2023-07-30T10:49:38;99092.78;;;36.59;25.65
7376;BME280;3728;42.266;24.944;2023-07-30T10:52:08;99092.47;;;36.88;27.36
7376;BME280;3728;42.266;24.944;2023-07-30T10:54:36;99087.88;;;36.69;26.58
7376;BME280;3728;42.266;24.944;2023-07-30T10:57:05;99080.50;;;36.80;27.30
7376;BME280;3728;42.266;24.944;2023-07-30T10:59:36;99087.88;;;37.11;25.96
7376;BME280;3728;42.266;24.944;2023-07-30T11:02:07;99077.06;;;36.91;25.77
7376;BME280;3728;42.266;24.944;2023-07-30T11:04:39;99081.59;;;36.94;25.82
7376;BME280;3728;42.266;24.944;2023-07-30T11:07:06;99079.16;;;37.01;25.62
7376;BME280;3728;42.266;24.944;2023-07-30T11:09:34;99065.69;;;36.92;24.97
7376;BME280;3728;42.266;24.944;2023-07-30T11:12:03;99067.94;;;36.94;25.22
7376;BME280;3728;42.266;24.944;2023-07-30T11:14:33;99061.38;;;37.34;24.10
7376;BME280;3728;42.266;24.944;2023-07-30T11:17:02;99062.59;;;37.27;24.73
7376;BME280;3728;42.266;24.944;2023-07-30T11:19:30;99054.63;;;37.18;24.54
7376;BME280;3728;42.266;24.944;2023-07-30T11:22:01;99047.75;;;37.39;23.43
7376;BME280;3728;42.266;24.944;2023-07-30T11:24:37;99049.91;;;37.13;24.23
7376;BME280;3728;42.266;24.944;2023-07-30T11:27:05;99042.19;;;37.12;25.12
7376;BME280;3728;42.266;24.944;2023-07-30T11:29:35;99037.13;;;37.58;23.99
7376;BME280;3728;42.266;24.944;2023-07-30T11:32:04;99034.34;;;37.41;25.15
7376;BME280;3728;42.266;24.944;2023-07-30T11:34:34;99026.91;;;37.64;24.66
7376;BME280;3728;42.266;24.944;2023-07-30T11:37:07;99019.47;;;37.81;22.96
7376;BME280;3728;42.266;24.944;2023-07-30T11:39:36;99017.00;;;37.72;23.06
7376;BME280;3728;42.266;24.944;2023-07-30T11:42:24;99017.72;;;37.67;23.89
7376;BME280;3728;42.266;24.944;2023-07-30T11:44:58;99020.00;;;38.13;23.28
7376;BME280;3728;42.266;24.944;2023-07-30T11:47:27;99010.06;;;37.93;23.85
7376;BME280;3728;42.266;24.944;2023-07-30T11:49:57;99014.22;;;38.44;23.35
7376;BME280;3728;42.266;24.944;2023-07-30T11:52:25;99007.50;;;38.51;23.89
7376;BME280;3728;42.266;24.944;2023-07-30T11:55:04;99004.31;;;38.24;24.31
7376;BME280;3728;42.266;24.944;2023-07-30T11:57:36;99003.97;;;38.61;23.07
7376;BME280;3728;42.266;24.944;2023-07-30T12:00:09;98994.56;;;38.51;23.08
7376;BME280;3728;42.266;24.944;2023-07-30T12:02:38;98985.16;;;38.24;22.47
7376;BME280;3728;42.266;24.944;2023-07-30T12:05:11;98977.69;;;38.36;23.22
7376;BME280;3728;42.266;24.944;2023-07-30T12:07:40;98973.94;;;38.45;23.70
7376;BME280;3728;42.266;24.944;2023-07-30T12:10:10;98978.72;;;38.96;21.96
7376;BME280;3728;42.266;24.944;2023-07-30T12:12:50;98973.84;;;38.67;21.56
7376;BME280;3728;42.266;24.944;2023-07-30T12:15:20;98961.94;;;38.59;22.61
7376;BME280;3728;42.266;24.944;2023-07-30T12:17:50;98955.94;;;38.66;22.35
7376;BME280;3728;42.266;24.944;2023-07-30T12:20:19;98952.69;;;38.73;22.61
7376;BME280;3728;42.266;24.944;2023-07-30T12:22:47;98950.78;;;39.03;21.86
7376;BME280;3728;42.266;24.944;2023-07-30T12:25:15;98947.56;;;39.05;22.47
7376;BME280;3728;42.266;24.944;2023-07-30T12:27:44;98943.63;;;39.35;21.20
7376;BME280;3728;42.266;24.944;2023-07-30T12:30:48;98947.06;;;39.41;19.84
7376;BME280;3728;42.266;24.944;2023-07-30T12:33:37;98940.16;;;39.29;19.70
7376;BME280;3728;42.266;24.944;2023-07-30T12:36:07;98928.19;;;39.32;20.19
7376;BME280;3728;42.266;24.944;2023-07-30T12:38:35;98930.94;;;39.32;20.42
7376;BME280;3728;42.266;24.944;2023-07-30T12:41:03;98926.94;;;39.69;19.46
7376;BME280;3728;42.266;24.944;2023-07-30T12:43:37;98926.22;;;39.62;19.18
7376;BME280;3728;42.266;24.944;2023-07-30T12:46:07;98921.69;;;39.35;18.62
7376;BME280;3728;42.266;24.944;2023-07-30T12:48:42;98914.53;;;39.27;19.51
7376;BME280;3728;42.266;24.944;2023-07-30T12:51:10;98906.03;;;39.30;19.19
7376;BME280;3728;42.266;24.944;2023-07-30T12:53:38;98910.28;;;39.61;19.45
7376;BME280;3728;42.266;24.944;2023-07-30T12:56:06;98902.00;;;39.37;19.92
7376;BME280;3728;42.266;24.944;2023-07-30T12:58:36;98909.03;;;39.62;19.37
7376;BME280;3728;42.266;24.944;2023-07-30T13:01:07;98909.56;;;39.55;19.88
7376;BME280;3728;42.266;24.944;2023-07-30T13:03:34;98897.53;;;38.98;21.16
7376;BME280;3728;42.266;24.944;2023-07-30T13:06:05;98895.59;;;39.29;20.33
7376;BME280;3728;42.266;24.944;2023-07-30T13:08:33;98895.13;;;39.25;20.69
7376;BME280;3728;42.266;24.944;2023-07-30T13:11:01;98898.00;;;39.68;19.63
7376;BME280;3728;42.266;24.944;2023-07-30T13:13:29;98899.16;;;39.48;19.90
7376;BME280;3728;42.266;24.944;2023-07-30T13:15:58;98896.03;;;39.68;19.72
7376;BME280;3728;42.266;24.944;2023-07-30T13:18:29;98890.88;;;39.59;20.29
7376;BME280;3728;42.266;24.944;2023-07-30T13:20:57;98882.31;;;39.68;19.94
7376;BME280;3728;42.266;24.944;2023-07-30T13:23:25;98875.72;;;40.01;20.47